createdAt,value
2023-02-08T00:00:09.439Z,17.93
2023-02-08T00:01:09.409Z,18.14
2023-02-08T00:02:09.385Z,17.96
2023-02-08T00:03:09.358Z,18.12
2023-02-08T00:04:09.362Z,18.20
2023-02-08T00:05:09.319Z,18.11
2023-02-08T00:06:09.306Z,18.18
2023-02-08T00:07:09.278Z,18.11
2023-02-08T00:08:09.257Z,18.24
2023-02-08T00:09:09.237Z,18.20
2023-02-08T00:10:09.246Z,18.24
2023-02-08T00:11:09.204Z,18.14
2023-02-08T00:12:09.196Z,18.21
2023-02-08T00:13:09.170Z,18.21
2023-02-08T00:14:09.173Z,18.27
2023-02-08T00:15:09.168Z,18.03
2023-02-08T00:16:09.275Z,18.15
2023-02-08T00:17:09.155Z,18.20
2023-02-08T00:18:09.149Z,18.20
2023-02-08T00:19:09.139Z,18.16
2023-02-08T00:20:09.154Z,18.02
2023-02-08T00:21:09.127Z,18.00
2023-02-08T00:22:09.114Z,18.09
2023-02-08T00:23:09.116Z,18.02
2023-02-08T00:24:09.113Z,18.15
2023-02-08T00:25:09.104Z,18.01
2023-02-08T00:26:09.113Z,17.99
2023-02-08T00:27:09.106Z,18.18
2023-02-08T00:28:09.548Z,17.90
2023-02-08T00:29:09.104Z,18.06
2023-02-08T00:30:09.090Z,18.12
2023-02-08T00:31:09.216Z,18.16
2023-02-08T00:32:09.087Z,18.12
2023-02-08T00:33:09.081Z,18.21
2023-02-08T00:34:09.070Z,17.97
2023-02-08T00:35:09.092Z,18.19
2023-02-08T00:36:09.072Z,18.18
2023-02-08T00:37:09.071Z,17.97
2023-02-08T00:38:09.069Z,18.05
2023-02-08T00:39:09.065Z,18.06
2023-02-08T00:40:09.064Z,18.07
2023-02-08T00:41:09.068Z,17.96
2023-02-08T00:42:09.045Z,18.07
2023-02-08T00:43:09.042Z,18.15
2023-02-08T00:44:09.056Z,17.66
2023-02-08T00:45:09.039Z,17.89
2023-02-08T00:46:09.037Z,18.15
2023-02-08T00:47:09.041Z,18.01
2023-02-08T00:48:09.024Z,18.13
2023-02-08T00:49:09.015Z,18.12
2023-02-08T00:50:08.991Z,17.92
2023-02-08T00:51:08.995Z,18.15
2023-02-08T00:52:08.974Z,18.07
2023-02-08T00:53:08.962Z,18.07
2023-02-08T00:54:08.950Z,18.01
2023-02-08T00:55:08.939Z,18.15
2023-02-08T00:56:08.933Z,18.07
2023-02-08T00:57:08.923Z,18.15
2023-02-08T00:58:08.922Z,18.06
2023-02-08T00:59:08.903Z,17.98
2023-02-08T01:00:08.886Z,17.85
2023-02-08T01:01:08.945Z,18.09
2023-02-08T01:02:08.910Z,18.10
2023-02-08T01:03:08.864Z,18.00
2023-02-08T01:04:08.834Z,18.13
2023-02-08T01:05:08.832Z,18.03
2023-02-08T01:06:08.831Z,18.10
2023-02-08T01:07:08.813Z,18.07
2023-02-08T01:08:08.804Z,17.97
2023-02-08T01:09:08.805Z,18.00
2023-02-08T01:10:08.798Z,18.16
2023-02-08T01:11:08.773Z,18.16
2023-02-08T01:12:08.782Z,18.01
2023-02-08T01:13:08.758Z,18.03
2023-02-08T01:14:08.753Z,18.00
2023-02-08T01:15:08.756Z,17.71
2023-02-08T01:16:08.775Z,17.97
2023-02-08T01:17:08.765Z,18.09
2023-02-08T01:18:08.741Z,18.03
2023-02-08T01:19:08.727Z,18.10
2023-02-08T01:20:08.723Z,18.06
2023-02-08T01:21:08.725Z,18.03
2023-02-08T01:22:08.714Z,17.88
2023-02-08T01:23:08.712Z,18.12
2023-02-08T01:24:08.698Z,18.09
2023-02-08T01:25:08.692Z,18.10
2023-02-08T01:26:08.689Z,17.91
2023-02-08T01:27:08.685Z,17.77
2023-02-08T01:28:08.701Z,17.98
2023-02-08T01:29:08.680Z,18.12
2023-02-08T01:30:08.670Z,17.60
2023-02-08T01:31:08.780Z,17.89
2023-02-08T01:32:08.650Z,17.94
2023-02-08T01:33:08.645Z,18.06
2023-02-08T01:34:08.637Z,17.88
2023-02-08T01:35:08.646Z,18.06
2023-02-08T01:36:08.628Z,18.07
2023-02-08T01:37:08.616Z,17.83
2023-02-08T01:38:08.619Z,18.03
2023-02-08T01:39:08.622Z,17.95
2023-02-08T01:40:08.596Z,18.03
2023-02-08T01:41:08.589Z,18.04
2023-02-08T01:42:08.573Z,17.91
2023-02-08T01:43:08.579Z,18.01
2023-02-08T01:44:08.564Z,17.92
2023-02-08T01:45:08.575Z,18.12
2023-02-08T01:46:08.591Z,18.18
2023-02-08T01:47:08.556Z,17.98
2023-02-08T01:48:08.556Z,17.97
2023-02-08T01:49:08.543Z,17.95
2023-02-08T01:50:08.525Z,17.95
2023-02-08T01:51:08.523Z,18.01
2023-02-08T01:52:08.517Z,17.85
2023-02-08T01:53:08.521Z,17.89
2023-02-08T01:54:08.498Z,17.94
2023-02-08T01:55:08.492Z,18.04
2023-02-08T01:56:08.481Z,17.91
2023-02-08T01:57:08.471Z,17.97
2023-02-08T01:58:08.476Z,18.04
2023-02-08T01:59:08.477Z,18.04
2023-02-08T02:00:08.463Z,18.10
2023-02-08T02:01:08.481Z,18.03
2023-02-08T02:02:08.450Z,18.06
2023-02-08T02:03:08.446Z,17.91
2023-02-08T02:04:08.480Z,18.00
2023-02-08T02:05:08.424Z,17.98
2023-02-08T02:06:08.427Z,18.09
2023-02-08T02:07:08.421Z,18.07
2023-02-08T02:08:08.446Z,18.03
2023-02-08T02:09:08.428Z,18.04
2023-02-08T02:10:08.421Z,18.09
2023-02-08T02:11:08.401Z,18.00
2023-02-08T02:12:08.393Z,18.03
2023-02-08T02:13:08.386Z,18.00
2023-02-08T02:14:08.393Z,18.01
2023-02-08T02:15:08.373Z,17.90
2023-02-08T02:16:08.379Z,17.92
2023-02-08T02:17:08.366Z,17.89
2023-02-08T02:18:08.371Z,17.92
2023-02-08T02:19:08.357Z,18.09
2023-02-08T02:20:08.370Z,17.90
2023-02-08T02:21:08.339Z,17.86
2023-02-08T02:22:08.329Z,17.96
2023-02-08T02:23:08.347Z,18.02
2023-02-08T02:24:08.344Z,17.79
2023-02-08T02:25:08.330Z,18.03
2023-02-08T02:26:08.321Z,17.92
2023-02-08T02:27:08.305Z,17.88
2023-02-08T02:28:08.310Z,17.79
2023-02-08T02:29:08.309Z,18.01
2023-02-08T02:30:08.296Z,18.07
2023-02-08T02:31:08.300Z,17.99
2023-02-08T02:32:08.296Z,17.96
2023-02-08T02:33:08.279Z,18.07
2023-02-08T02:34:08.286Z,18.10
2023-02-08T02:35:08.294Z,17.94
2023-02-08T02:36:08.254Z,17.90
2023-02-08T02:37:08.251Z,17.90
2023-02-08T02:38:08.235Z,17.95
2023-02-08T02:39:08.254Z,17.99
2023-02-08T02:40:08.223Z,18.05
2023-02-08T02:41:08.216Z,17.89
2023-02-08T02:42:08.203Z,17.99
2023-02-08T02:43:08.204Z,18.05
2023-02-08T02:44:08.196Z,18.04
2023-02-08T02:45:08.186Z,17.98
2023-02-08T02:46:08.198Z,17.94
2023-02-08T02:47:08.161Z,18.02
2023-02-08T02:48:08.148Z,17.83
2023-02-08T02:49:08.145Z,17.92
2023-02-08T02:50:08.124Z,17.80
2023-02-08T02:51:08.105Z,17.88
2023-02-08T02:52:08.092Z,17.89
2023-02-08T02:53:08.096Z,17.99
2023-02-08T02:54:08.111Z,17.83
2023-02-08T02:55:08.079Z,17.99
2023-02-08T02:56:08.067Z,17.80
2023-02-08T02:57:08.048Z,17.98
2023-02-08T02:58:08.044Z,17.96
2023-02-08T02:59:08.056Z,18.01
2023-02-08T03:00:08.017Z,17.99
2023-02-08T03:01:08.085Z,17.85
2023-02-08T03:02:08.005Z,17.86
2023-02-08T03:03:07.990Z,17.80
2023-02-08T03:04:08.016Z,17.88
2023-02-08T03:05:07.980Z,17.83
2023-02-08T03:06:07.955Z,17.89
2023-02-08T03:07:07.941Z,17.96
2023-02-08T03:08:07.927Z,17.86
2023-02-08T03:09:07.925Z,17.90
2023-02-08T03:10:07.915Z,17.89
2023-02-08T03:11:07.900Z,17.80
2023-02-08T03:12:07.895Z,17.90
2023-02-08T03:13:07.884Z,17.90
2023-02-08T03:14:07.884Z,17.86
2023-02-08T03:15:07.892Z,17.92
2023-02-08T03:16:07.853Z,17.99
2023-02-08T03:17:07.837Z,17.92
2023-02-08T03:18:07.825Z,17.82
2023-02-08T03:19:07.809Z,17.79
2023-02-08T03:20:07.811Z,17.77
2023-02-08T03:21:07.791Z,17.94
2023-02-08T03:22:07.770Z,17.89
2023-02-08T03:23:07.757Z,17.92
2023-02-08T03:24:07.750Z,17.95
2023-02-08T03:25:07.744Z,17.89
2023-02-08T03:26:07.716Z,17.80
2023-02-08T03:27:07.688Z,17.84
2023-02-08T03:28:07.715Z,17.92
2023-02-08T03:29:07.650Z,17.96
2023-02-08T03:30:07.624Z,17.76
2023-02-08T03:31:07.743Z,17.78
2023-02-08T03:32:07.578Z,17.84
2023-02-08T03:33:07.554Z,17.78
2023-02-08T03:34:07.532Z,17.96
2023-02-08T03:35:07.532Z,17.95
2023-02-08T03:36:07.483Z,17.90
2023-02-08T03:37:07.471Z,17.92
2023-02-08T03:38:07.451Z,17.95
2023-02-08T03:39:07.420Z,17.92
2023-02-08T03:40:07.394Z,17.94
2023-02-08T03:41:07.351Z,17.85
2023-02-08T03:42:07.332Z,17.79
2023-02-08T03:43:07.300Z,17.85
2023-02-08T03:44:07.280Z,17.81
2023-02-08T03:45:07.269Z,17.80
2023-02-08T03:46:07.265Z,17.83
2023-02-08T03:47:07.204Z,17.62
2023-02-08T03:48:07.171Z,17.82
2023-02-08T03:49:07.163Z,17.86
2023-02-08T03:50:07.129Z,17.58
2023-02-08T03:51:07.120Z,17.71
2023-02-08T03:52:07.110Z,17.80
2023-02-08T03:53:07.093Z,17.69
2023-02-08T03:54:07.045Z,17.69
2023-02-08T03:55:07.009Z,17.86
2023-02-08T03:56:07.005Z,17.87
2023-02-08T03:57:06.982Z,17.74
2023-02-08T03:58:06.963Z,17.81
2023-02-08T03:59:06.974Z,17.90
2023-02-08T04:00:06.924Z,17.89
2023-02-08T04:01:06.940Z,17.72
2023-02-08T04:02:06.886Z,17.85
2023-02-08T04:03:06.859Z,17.63
2023-02-08T04:04:06.845Z,17.59
2023-02-08T04:05:06.811Z,17.80
2023-02-08T04:06:06.793Z,17.78
2023-02-08T04:07:06.776Z,17.74
2023-02-08T04:08:06.758Z,17.80
2023-02-08T04:09:06.727Z,17.78
2023-02-08T04:10:06.700Z,17.89
2023-02-08T04:11:06.684Z,17.75
2023-02-08T04:12:06.658Z,17.81
2023-02-08T04:13:06.628Z,17.78
2023-02-08T04:14:06.623Z,17.84
2023-02-08T04:15:06.596Z,17.71
2023-02-08T04:16:06.663Z,17.83
2023-02-08T04:17:06.561Z,17.77
2023-02-08T04:18:06.535Z,17.83
2023-02-08T04:19:06.525Z,17.77
2023-02-08T04:20:06.507Z,17.72
2023-02-08T04:21:06.495Z,17.44
2023-02-08T04:22:06.468Z,17.77
2023-02-08T04:23:06.441Z,17.78
2023-02-08T04:24:06.437Z,17.57
2023-02-08T04:25:06.402Z,17.72
2023-02-08T04:26:06.403Z,17.75
2023-02-08T04:27:06.373Z,17.83
2023-02-08T04:28:06.415Z,17.74
2023-02-08T04:29:06.339Z,17.75
2023-02-08T04:30:06.357Z,17.71
2023-02-08T04:31:06.368Z,17.71
2023-02-08T04:32:06.289Z,17.84
2023-02-08T04:33:06.279Z,17.77
2023-02-08T04:34:06.264Z,17.83
2023-02-08T04:35:06.248Z,17.78
2023-02-08T04:36:06.249Z,17.62
2023-02-08T04:37:06.222Z,17.75
2023-02-08T04:38:06.223Z,17.68
2023-02-08T04:39:06.211Z,17.83
2023-02-08T04:40:06.189Z,17.71
2023-02-08T04:41:06.169Z,17.75
2023-02-08T04:42:06.165Z,17.81
2023-02-08T04:43:06.157Z,17.77
2023-02-08T04:44:06.135Z,17.84
2023-02-08T04:45:06.102Z,17.62
2023-02-08T04:46:06.148Z,17.77
2023-02-08T04:47:06.075Z,17.71
2023-02-08T04:48:06.073Z,17.71
2023-02-08T04:49:06.040Z,17.52
2023-02-08T04:50:06.063Z,17.71
2023-02-08T04:51:06.011Z,17.69
2023-02-08T04:52:05.993Z,17.77
2023-02-08T04:53:05.973Z,17.79
2023-02-08T04:54:05.952Z,17.65
2023-02-08T04:55:05.937Z,17.79
2023-02-08T04:56:05.929Z,17.78
2023-02-08T04:57:05.913Z,17.79
2023-02-08T04:58:05.880Z,17.85
2023-02-08T04:59:05.863Z,17.60
2023-02-08T05:00:05.877Z,17.71
2023-02-08T05:01:05.838Z,17.74
2023-02-08T05:02:05.828Z,17.68
2023-02-08T05:03:05.792Z,17.77
2023-02-08T05:04:05.787Z,17.68
2023-02-08T05:05:05.850Z,17.63
2023-02-08T05:06:05.742Z,17.79
2023-02-08T05:07:05.727Z,17.76
2023-02-08T05:08:05.702Z,17.68
2023-02-08T05:09:05.688Z,17.56
2023-02-08T05:10:05.670Z,17.64
2023-02-08T05:11:05.654Z,17.64
2023-02-08T05:12:05.638Z,17.78
2023-02-08T05:13:05.608Z,17.79
2023-02-08T05:14:05.593Z,17.63
2023-02-08T05:15:05.565Z,17.72
2023-02-08T05:16:05.645Z,17.61
2023-02-08T05:17:05.530Z,17.72
2023-02-08T05:18:05.502Z,17.81
2023-02-08T05:19:05.495Z,17.54
2023-02-08T05:20:05.465Z,17.69
2023-02-08T05:21:05.451Z,17.66
2023-02-08T05:22:05.439Z,17.75
2023-02-08T05:23:05.410Z,17.72
2023-02-08T05:24:05.383Z,17.75
2023-02-08T05:25:05.356Z,17.70
2023-02-08T05:26:05.349Z,17.69
2023-02-08T05:27:05.321Z,17.73
2023-02-08T05:28:05.362Z,17.82
2023-02-08T05:29:05.271Z,17.66
2023-02-08T05:30:05.256Z,17.81
2023-02-08T05:31:05.337Z,17.69
2023-02-08T05:32:05.268Z,17.60
2023-02-08T05:33:05.200Z,17.76
2023-02-08T05:34:05.185Z,17.64
2023-02-08T05:35:05.152Z,17.64
2023-02-08T05:36:05.369Z,17.69
2023-02-08T05:37:05.118Z,17.79
2023-02-08T05:38:05.089Z,17.72
2023-02-08T05:39:05.090Z,17.61
2023-02-08T05:40:05.048Z,17.66
2023-02-08T05:41:05.030Z,17.66
2023-02-08T05:42:05.015Z,17.60
2023-02-08T05:43:05.000Z,17.64
2023-02-08T05:44:04.957Z,17.67
2023-02-08T05:45:04.935Z,17.57
2023-02-08T05:46:04.918Z,17.75
2023-02-08T05:47:04.924Z,17.67
2023-02-08T05:48:04.890Z,17.69
2023-02-08T05:49:04.868Z,17.69
2023-02-08T05:50:04.826Z,17.67
2023-02-08T05:51:04.819Z,17.64
2023-02-08T05:52:04.792Z,17.61
2023-02-08T05:53:04.776Z,17.72
2023-02-08T05:54:04.755Z,17.55
2023-02-08T05:55:04.737Z,17.63
2023-02-08T05:56:04.733Z,17.63
2023-02-08T05:57:04.700Z,17.75
2023-02-08T05:58:04.682Z,17.70
2023-02-08T05:59:04.653Z,17.61
2023-02-08T06:00:04.637Z,17.61
2023-02-08T06:01:04.616Z,17.64
2023-02-08T06:02:04.609Z,17.57
2023-02-08T06:03:04.625Z,17.60
2023-02-08T06:04:04.649Z,17.72
2023-02-08T06:05:04.532Z,17.63
2023-02-08T06:06:04.511Z,17.55
2023-02-08T06:07:04.488Z,17.55
2023-02-08T06:08:04.486Z,17.58
2023-02-08T06:09:04.459Z,17.61
2023-02-08T06:10:04.439Z,17.57
2023-02-08T06:11:04.417Z,17.58
2023-02-08T06:12:04.401Z,17.70
2023-02-08T06:13:04.375Z,17.66
2023-02-08T06:14:04.364Z,17.69
2023-02-08T06:15:04.329Z,17.61
2023-02-08T06:16:04.336Z,17.67
2023-02-08T06:17:04.294Z,17.73
2023-02-08T06:18:04.286Z,17.55
2023-02-08T06:19:04.259Z,17.66
2023-02-08T06:20:04.239Z,17.67
2023-02-08T06:21:04.210Z,17.69
2023-02-08T06:22:04.185Z,17.63
2023-02-08T06:23:04.161Z,17.57
2023-02-08T06:24:04.164Z,17.54
2023-02-08T06:25:04.124Z,17.64
2023-02-08T06:26:04.102Z,17.40
2023-02-08T06:27:04.074Z,17.63
2023-02-08T06:28:04.130Z,17.63
2023-02-08T06:29:04.036Z,17.57
2023-02-08T06:30:04.037Z,17.61
2023-02-08T06:31:04.020Z,17.63
2023-02-08T06:32:04.086Z,17.85
2023-02-08T06:33:03.969Z,18.13
2023-02-08T06:34:03.946Z,18.82
2023-02-08T06:35:03.951Z,18.63
2023-02-08T06:36:03.906Z,18.93
2023-02-08T06:37:03.907Z,19.30
2023-02-08T06:38:03.876Z,19.51
2023-02-08T06:39:03.845Z,19.75
2023-02-08T06:40:03.834Z,19.72
2023-02-08T06:41:03.793Z,20.26
2023-02-08T06:42:03.761Z,20.77
2023-02-08T06:43:03.740Z,20.77
2023-02-08T06:44:03.717Z,20.75
2023-02-08T06:45:03.692Z,21.31
2023-02-08T06:46:03.704Z,21.67
2023-02-08T06:47:03.653Z,21.99
2023-02-08T06:48:03.626Z,22.13
2023-02-08T06:49:03.617Z,21.80
2023-02-08T06:50:03.578Z,22.33
2023-02-08T06:51:03.551Z,22.40
2023-02-08T06:52:03.530Z,22.49
2023-02-08T06:53:03.490Z,22.38
2023-02-08T06:54:03.508Z,22.20
2023-02-08T06:55:03.447Z,22.57
2023-02-08T06:56:03.391Z,22.59
2023-02-08T06:57:03.367Z,22.57
2023-02-08T06:58:03.338Z,22.43
2023-02-08T06:59:03.333Z,22.76
2023-02-08T07:00:03.297Z,22.85
2023-02-08T07:01:03.326Z,22.73
2023-02-08T07:02:03.321Z,22.69
2023-02-08T07:03:03.195Z,22.81
2023-02-08T07:04:03.170Z,23.11
2023-02-08T07:05:03.141Z,23.10
2023-02-08T07:06:05.242Z,23.01
2023-02-08T07:07:03.149Z,23.09
2023-02-08T07:08:03.063Z,22.62
2023-02-08T07:09:03.034Z,23.00
2023-02-08T07:10:03.060Z,23.21
2023-02-08T07:11:02.957Z,22.86
2023-02-08T07:12:02.933Z,22.99
2023-02-08T07:13:02.917Z,22.96
2023-02-08T07:14:02.975Z,23.20
2023-02-08T07:15:03.027Z,23.52
2023-02-08T07:16:03.022Z,23.54
2023-02-08T07:17:03.065Z,23.82
2023-02-08T07:18:03.088Z,23.77
2023-02-08T07:19:03.127Z,23.67
2023-02-08T07:20:03.190Z,23.95
2023-02-08T07:21:03.197Z,23.84
2023-02-08T07:22:03.232Z,23.82
2023-02-08T07:23:03.277Z,23.91
2023-02-08T07:24:03.351Z,23.94
2023-02-08T07:25:03.342Z,23.94
2023-02-08T07:26:03.377Z,24.09
2023-02-08T07:27:03.405Z,24.06
2023-02-08T07:28:03.505Z,23.98
2023-02-08T07:29:04.162Z,24.05
2023-02-08T07:30:03.452Z,23.97
2023-02-08T07:31:03.434Z,23.94
2023-02-08T07:32:03.445Z,24.01
2023-02-08T07:33:03.383Z,24.25
2023-02-08T07:34:03.358Z,24.18
2023-02-08T07:35:03.355Z,24.33
2023-02-08T07:36:03.332Z,24.25
2023-02-08T07:37:03.352Z,24.22
2023-02-08T07:38:03.352Z,24.33
2023-02-08T07:39:03.378Z,24.43
2023-02-08T07:40:03.413Z,24.55
2023-02-08T07:41:03.499Z,24.32
2023-02-08T07:42:03.487Z,24.57
2023-02-08T07:43:03.498Z,24.23
2023-02-08T07:44:03.541Z,24.44
2023-02-08T07:45:03.577Z,24.30
2023-02-08T07:46:03.625Z,24.25
2023-02-08T07:47:03.621Z,24.20
2023-02-08T07:48:03.651Z,23.87
2023-02-08T07:49:03.689Z,23.42
2023-02-08T07:50:03.708Z,22.84
2023-02-08T07:51:03.747Z,23.10
2023-02-08T07:52:03.792Z,23.27
2023-02-08T07:53:03.808Z,23.09
2023-02-08T07:54:03.838Z,23.03
2023-02-08T07:55:03.892Z,22.94
2023-02-08T07:56:03.837Z,22.83
2023-02-08T07:57:03.971Z,22.66
2023-02-08T07:58:03.822Z,22.48
2023-02-08T07:59:03.760Z,22.33
2023-02-08T08:00:03.744Z,22.19
2023-02-08T08:01:19.733Z,21.86
2023-02-08T08:02:04.736Z,21.76
2023-02-08T08:03:03.654Z,21.88
2023-02-08T08:04:03.664Z,21.70
2023-02-08T08:05:03.603Z,21.70
2023-02-08T08:06:03.569Z,21.60
2023-02-08T08:07:03.539Z,21.42
2023-02-08T08:08:03.513Z,21.51
2023-02-08T08:09:03.487Z,21.36
2023-02-08T08:10:03.458Z,21.36
2023-02-08T08:11:03.946Z,20.85
2023-02-08T08:12:03.380Z,20.94
2023-02-08T08:13:03.356Z,20.70
2023-02-08T08:14:03.318Z,20.96
2023-02-08T08:15:03.288Z,20.93
2023-02-08T08:16:03.316Z,20.87
2023-02-08T08:17:03.230Z,20.87
2023-02-08T08:18:03.227Z,20.74
2023-02-08T08:19:03.185Z,20.75
2023-02-08T08:20:03.157Z,20.69
2023-02-08T08:21:03.129Z,20.80
2023-02-08T08:22:03.100Z,20.82
2023-02-08T08:23:03.066Z,20.92
2023-02-08T08:24:03.051Z,20.84
2023-02-08T08:25:03.024Z,20.71
2023-02-08T08:26:02.986Z,20.60
2023-02-08T08:27:04.687Z,20.48
2023-02-08T08:28:02.935Z,20.68
2023-02-08T08:29:02.970Z,20.65
2023-02-08T08:30:02.888Z,20.78
2023-02-08T08:31:02.902Z,20.83
2023-02-08T08:32:02.791Z,20.87
2023-02-08T08:33:02.792Z,20.93
2023-02-08T08:34:02.740Z,20.79
2023-02-08T08:35:02.694Z,20.85
2023-02-08T08:36:02.668Z,20.91
2023-02-08T08:37:02.641Z,21.19
2023-02-08T08:38:02.722Z,21.31
2023-02-08T08:39:02.572Z,21.55
2023-02-08T08:40:02.511Z,21.49
2023-02-08T08:41:02.481Z,18.78
2023-02-08T08:42:02.449Z,19.68
2023-02-08T08:43:02.417Z,20.39
2023-02-08T08:44:02.393Z,19.81
2023-02-08T08:45:02.369Z,19.72
2023-02-08T08:46:02.359Z,20.30
2023-02-08T08:47:02.315Z,19.80
2023-02-08T08:48:02.287Z,19.70
2023-02-08T08:49:02.256Z,19.88
2023-02-08T08:50:02.226Z,19.07
2023-02-08T08:51:02.188Z,19.24
2023-02-08T08:52:02.174Z,16.90
2023-02-08T08:53:02.141Z,16.58
2023-02-08T08:54:02.109Z,18.22
2023-02-08T08:55:02.089Z,18.20
2023-02-08T08:56:02.063Z,18.10
2023-02-08T08:57:02.029Z,17.87
2023-02-08T08:58:02.004Z,17.93
2023-02-08T08:59:01.990Z,18.21
2023-02-08T09:00:01.999Z,18.21
2023-02-08T09:01:01.938Z,18.44
2023-02-08T09:02:01.913Z,18.74
2023-02-08T09:03:01.881Z,18.99
2023-02-08T09:04:01.840Z,18.92
2023-02-08T09:05:01.817Z,19.13
2023-02-08T09:06:01.804Z,18.89
2023-02-08T09:07:01.782Z,18.71
2023-02-08T09:08:01.733Z,19.30
2023-02-08T09:09:01.710Z,18.86
2023-02-08T09:10:01.689Z,18.71
2023-02-08T09:11:01.653Z,18.72
2023-02-08T09:12:01.617Z,18.87
2023-02-08T09:13:01.704Z,18.80
2023-02-08T09:14:04.219Z,19.02
2023-02-08T09:15:01.634Z,19.17
2023-02-08T09:16:01.572Z,19.26
2023-02-08T09:17:01.521Z,19.57
2023-02-08T09:18:01.449Z,19.68
2023-02-08T09:19:01.420Z,19.54
2023-02-08T09:20:02.823Z,19.63
2023-02-08T09:21:01.381Z,19.69
2023-02-08T09:22:01.335Z,19.91
2023-02-08T09:23:01.293Z,19.80
2023-02-08T09:24:01.264Z,19.96
2023-02-08T09:25:01.239Z,19.95
2023-02-08T09:26:01.199Z,20.17
2023-02-08T09:27:01.195Z,20.27
2023-02-08T09:28:01.254Z,20.27
2023-02-08T09:29:01.132Z,20.23
2023-02-08T09:30:01.102Z,21.02
2023-02-08T09:31:01.174Z,21.04
2023-02-08T09:32:01.118Z,20.98
2023-02-08T09:33:01.005Z,21.03
2023-02-08T09:34:00.984Z,21.14
2023-02-08T09:35:00.952Z,21.16
2023-02-08T09:36:00.948Z,21.13
2023-02-08T09:37:00.912Z,21.02
2023-02-08T09:38:00.888Z,20.95
2023-02-08T09:39:00.880Z,20.99
2023-02-08T09:40:00.818Z,20.96
2023-02-08T09:41:00.771Z,20.98
2023-02-08T09:42:00.763Z,21.05
2023-02-08T09:43:00.710Z,21.10
2023-02-08T09:44:00.677Z,21.34
2023-02-08T09:45:00.697Z,21.18
2023-02-08T09:46:00.833Z,21.43
2023-02-08T09:47:00.632Z,21.52
2023-02-08T09:48:00.582Z,21.37
2023-02-08T09:49:00.587Z,21.44
2023-02-08T09:50:00.556Z,21.52
2023-02-08T09:51:00.532Z,21.24
2023-02-08T09:52:00.470Z,21.82
2023-02-08T09:53:00.450Z,21.79
2023-02-08T09:54:00.429Z,21.57
2023-02-08T09:55:00.389Z,21.44
2023-02-08T09:56:02.014Z,21.62
2023-02-08T09:57:00.322Z,21.49
2023-02-08T09:58:00.302Z,21.49
2023-02-08T09:59:00.312Z,21.04
2023-02-08T10:00:00.269Z,21.09
2023-02-08T10:01:00.241Z,21.27
2023-02-08T10:02:00.143Z,21.15
2023-02-08T10:03:00.167Z,21.00
2023-02-08T10:04:00.139Z,20.99
2023-02-08T10:05:00.056Z,21.06
2023-02-08T10:06:00.041Z,20.87
2023-02-08T10:07:00.014Z,20.85
2023-02-08T10:07:59.952Z,20.63
2023-02-08T10:08:59.940Z,20.84
2023-02-08T10:09:59.891Z,20.87
2023-02-08T10:10:59.869Z,20.79
2023-02-08T10:11:59.845Z,20.78
2023-02-08T10:12:59.829Z,20.81
2023-02-08T10:13:59.811Z,20.64
2023-02-08T10:14:59.795Z,20.70
2023-02-08T10:15:59.766Z,20.81
2023-02-08T10:16:59.681Z,20.91
2023-02-08T10:17:59.698Z,20.76
2023-02-08T10:18:59.677Z,20.78
2023-02-08T10:19:59.621Z,20.79
2023-02-08T10:20:59.579Z,20.63
2023-02-08T10:21:59.548Z,20.70
2023-02-08T10:22:59.518Z,20.61
2023-02-08T10:23:59.503Z,20.57
2023-02-08T10:24:59.451Z,20.70
2023-02-08T10:25:59.416Z,20.72
2023-02-08T10:26:59.388Z,20.41
2023-02-08T10:27:59.366Z,20.57
2023-02-08T10:28:59.319Z,20.57
2023-02-08T10:29:59.341Z,20.74
2023-02-08T10:30:59.272Z,20.68
2023-02-08T10:31:59.256Z,20.54
2023-02-08T10:32:59.192Z,20.44
2023-02-08T10:33:59.166Z,20.59
2023-02-08T10:34:59.127Z,20.70
2023-02-08T10:35:59.158Z,20.71
2023-02-08T10:36:59.053Z,20.43
2023-02-08T10:37:59.040Z,20.35
2023-02-08T10:38:58.996Z,21.03
2023-02-08T10:39:58.967Z,21.60
2023-02-08T10:40:58.932Z,22.64
2023-02-08T10:41:58.902Z,22.60
2023-02-08T10:42:58.837Z,23.69
2023-02-08T10:43:58.801Z,24.73
2023-02-08T10:44:58.804Z,24.56
2023-02-08T10:45:58.890Z,25.09
2023-02-08T10:46:58.706Z,24.75
2023-02-08T10:47:58.669Z,24.35
2023-02-08T10:48:58.636Z,23.87
2023-02-08T10:49:58.601Z,23.40
2023-02-08T10:50:58.573Z,23.06
2023-02-08T10:51:58.558Z,22.71
2023-02-08T10:52:58.503Z,22.39
2023-02-08T10:53:58.484Z,22.86
2023-02-08T10:54:58.483Z,22.34
2023-02-08T10:55:58.382Z,22.32
2023-02-08T10:56:58.377Z,22.74
2023-02-08T10:57:58.300Z,22.53
2023-02-08T10:58:58.276Z,22.36
2023-02-08T10:59:58.233Z,22.42
2023-02-08T11:00:58.227Z,21.96
2023-02-08T11:01:58.173Z,22.11
2023-02-08T11:02:58.157Z,21.69
2023-02-08T11:03:58.132Z,21.71
2023-02-08T11:04:58.071Z,21.72
2023-02-08T11:05:58.044Z,21.75
2023-02-08T11:06:58.009Z,21.86
2023-02-08T11:07:57.976Z,21.77
2023-02-08T11:08:57.993Z,21.75
2023-02-08T11:09:57.913Z,21.51
2023-02-08T11:10:57.891Z,21.13
2023-02-08T11:11:57.870Z,21.03
2023-02-08T11:12:57.842Z,20.92
2023-02-08T11:13:57.791Z,21.21
2023-02-08T11:14:57.777Z,20.67
2023-02-08T11:15:57.776Z,20.89
2023-02-08T11:16:57.715Z,20.92
2023-02-08T11:17:57.659Z,20.94
2023-02-08T11:18:57.649Z,20.73
2023-02-08T11:19:57.620Z,20.82
2023-02-08T11:20:57.583Z,20.46
2023-02-08T11:21:57.549Z,20.25
2023-02-08T11:22:57.522Z,20.58
2023-02-08T11:23:57.576Z,20.31
2023-02-08T11:24:57.469Z,20.23
2023-02-08T11:25:57.431Z,20.37
2023-02-08T11:26:57.392Z,20.50
2023-02-08T11:27:57.374Z,20.22
2023-02-08T11:28:57.332Z,20.54
2023-02-08T11:29:57.297Z,20.89
2023-02-08T11:30:57.288Z,21.03
2023-02-08T11:31:57.302Z,21.09
2023-02-08T11:32:57.254Z,20.95
2023-02-08T11:33:57.204Z,20.53
2023-02-08T11:34:57.173Z,20.16
2023-02-08T11:35:57.138Z,20.20
2023-02-08T11:36:57.102Z,20.62
2023-02-08T11:37:57.078Z,21.41
2023-02-08T11:38:57.048Z,21.81
2023-02-08T11:39:57.007Z,22.19
2023-02-08T11:40:56.975Z,21.88
2023-02-08T11:41:56.948Z,22.09
2023-02-08T11:42:56.909Z,22.45
2023-02-08T11:43:56.885Z,22.31
2023-02-08T11:44:56.905Z,22.24
2023-02-08T11:45:56.830Z,22.18
2023-02-08T11:46:56.787Z,22.26
2023-02-08T11:47:56.772Z,22.65
2023-02-08T11:48:56.745Z,22.80
2023-02-08T11:49:56.698Z,22.90
2023-02-08T11:50:56.664Z,22.99
2023-02-08T11:51:56.633Z,23.05
2023-02-08T11:52:56.600Z,23.40
2023-02-08T11:53:56.563Z,23.48
2023-02-08T11:54:56.530Z,23.41
2023-02-08T11:55:56.491Z,23.41
2023-02-08T11:56:56.456Z,23.51
2023-02-08T11:57:56.422Z,23.33
2023-02-08T11:58:56.388Z,23.52
2023-02-08T11:59:56.353Z,23.59
2023-02-08T12:00:56.328Z,23.65
2023-02-08T12:01:56.266Z,23.62
2023-02-08T12:02:56.225Z,23.66
2023-02-08T12:03:57.686Z,23.73
2023-02-08T12:04:56.157Z,23.76
2023-02-08T12:05:56.131Z,23.69
2023-02-08T12:06:56.094Z,23.61
2023-02-08T12:07:56.067Z,23.74
2023-02-08T12:08:56.002Z,23.77
2023-02-08T12:09:55.970Z,23.90
2023-02-08T12:10:55.927Z,23.86
2023-02-08T12:11:55.933Z,23.86
2023-02-08T12:12:55.855Z,23.68
2023-02-08T12:13:55.812Z,23.76
2023-02-08T12:14:55.774Z,23.86
2023-02-08T12:15:58.602Z,23.80
2023-02-08T12:16:55.695Z,23.83
2023-02-08T12:17:55.681Z,23.83
2023-02-08T12:18:55.640Z,23.82
2023-02-08T12:19:55.619Z,23.61
2023-02-08T12:20:55.568Z,23.59
2023-02-08T12:21:55.534Z,23.52
2023-02-08T12:22:55.504Z,23.58
2023-02-08T12:23:55.472Z,23.55
2023-02-08T12:24:55.439Z,23.61
2023-02-08T12:25:55.406Z,23.65
2023-02-08T12:26:55.350Z,23.70
2023-02-08T12:27:55.364Z,23.63
2023-02-08T12:28:55.382Z,23.62
2023-02-08T12:29:55.254Z,23.47
2023-02-08T12:30:55.323Z,22.88
2023-02-08T12:31:55.176Z,23.13
2023-02-08T12:32:55.149Z,23.10
2023-02-08T12:33:55.145Z,22.76
2023-02-08T12:34:55.071Z,22.67
2023-02-08T12:36:04.148Z,22.44
2023-02-08T12:36:56.001Z,22.15
2023-02-08T12:37:54.937Z,21.76
2023-02-08T12:38:54.891Z,21.79
2023-02-08T12:39:54.857Z,21.58
2023-02-08T12:40:54.808Z,21.51
2023-02-08T12:41:54.777Z,21.24
2023-02-08T12:42:54.732Z,21.39
2023-02-08T12:43:54.724Z,21.24
2023-02-08T12:44:54.647Z,21.30
2023-02-08T12:45:54.621Z,21.44
2023-02-08T12:46:54.573Z,21.65
2023-02-08T12:48:03.611Z,21.59
2023-02-08T12:48:55.472Z,21.58
2023-02-08T12:49:54.426Z,21.41
2023-02-08T12:50:54.386Z,21.36
2023-02-08T12:51:54.349Z,21.21